Kermit, Texas
Current Conditions -  °F | °C
As of 8:53 PM on Saturday 25 Oct 2014 (Local Time) from KINK Reporting Station
Clear Clear  
Wind Chill: 72°   Ceiling: Unl
Heat Index: 72°   Visibility: 10mi
Dew Point: 52°   Wind: 6mph
Humidity: 49%   Direction: 120°ESE
Pressure: 30.07"   Gusts: NA
Location:  31.85°N, 103.08°W
Report Text: KINK 260153Z AUTO 12005KT 10SM CLR 22/11 A3007 RMK AO2 SLP149 T02220111
Loading
Personal Weather Stations






























Interactive Weather Map
Tropical Storm Tracking
New forecast layout! Learn more

10-Day Weather Forecast

Advertisements
Track Severe Weather on mobile